sensor_id;sensor_type;location;lat;lon;timestamp;temperature;humidity
45785;DHT22;31489;51.404;5.474;2023-05-10T00:01:07;17.20;87.00
45785;DHT22;31489;51.404;5.474;2023-05-10T00:03:33;17.30;86.90
45785;DHT22;31489;51.404;5.474;2023-05-10T00:05:59;17.30;86.90
45785;DHT22;31489;51.404;5.474;2023-05-10T00:08:24;17.30;86.70
45785;DHT22;31489;51.404;5.474;2023-05-10T00:10:50;17.30;86.70
45785;DHT22;31489;51.404;5.474;2023-05-10T00:13:15;17.30;86.70
45785;DHT22;31489;51.404;5.474;2023-05-10T00:15:41;17.30;86.80
45785;DHT22;31489;51.404;5.474;2023-05-10T00:18:07;17.30;86.70
45785;DHT22;31489;51.404;5.474;2023-05-10T00:20:33;17.30;86.70
45785;DHT22;31489;51.404;5.474;2023-05-10T00:22:58;17.30;86.70
45785;DHT22;31489;51.404;5.474;2023-05-10T00:25:24;17.30;86.70
45785;DHT22;31489;51.404;5.474;2023-05-10T00:27:50;17.30;86.70
45785;DHT22;31489;51.404;5.474;2023-05-10T00:30:15;17.30;86.70
45785;DHT22;31489;51.404;5.474;2023-05-10T00:32:41;17.30;86.80
45785;DHT22;31489;51.404;5.474;2023-05-10T00:35:07;17.30;86.70
45785;DHT22;31489;51.404;5.474;2023-05-10T00:37:33;17.30;86.60
45785;DHT22;31489;51.404;5.474;2023-05-10T00:39:59;17.30;86.50
45785;DHT22;31489;51.404;5.474;2023-05-10T00:42:24;17.30;86.40
45785;DHT22;31489;51.404;5.474;2023-05-10T00:44:50;17.30;86.50
45785;DHT22;31489;51.404;5.474;2023-05-10T00:47:16;17.30;86.50
45785;DHT22;31489;51.404;5.474;2023-05-10T00:49:42;17.30;86.40
45785;DHT22;31489;51.404;5.474;2023-05-10T00:52:09;17.30;86.50
45785;DHT22;31489;51.404;5.474;2023-05-10T00:54:34;17.30;86.60
45785;DHT22;31489;51.404;5.474;2023-05-10T00:57:00;17.30;86.50
45785;DHT22;31489;51.404;5.474;2023-05-10T00:59:25;17.30;86.50
45785;DHT22;31489;51.404;5.474;2023-05-10T01:01:52;17.30;86.40
45785;DHT22;31489;51.404;5.474;2023-05-10T01:04:18;17.30;86.50
45785;DHT22;31489;51.404;5.474;2023-05-10T01:06:45;17.20;86.50
45785;DHT22;31489;51.404;5.474;2023-05-10T01:09:11;17.20;86.50
45785;DHT22;31489;51.404;5.474;2023-05-10T01:11:38;17.20;86.50
45785;DHT22;31489;51.404;5.474;2023-05-10T01:14:05;17.20;86.50
45785;DHT22;31489;51.404;5.474;2023-05-10T01:16:33;17.20;86.60
45785;DHT22;31489;51.404;5.474;2023-05-10T01:19:01;17.20;86.60
45785;DHT22;31489;51.404;5.474;2023-05-10T01:21:42;17.20;86.80
45785;DHT22;31489;51.404;5.474;2023-05-10T01:24:23;17.20;86.70
45785;DHT22;31489;51.404;5.474;2023-05-10T01:29:51;17.20;87.00
45785;DHT22;31489;51.404;5.474;2023-05-10T01:32:47;17.20;86.90
45785;DHT22;31489;51.404;5.474;2023-05-10T01:35:17;17.20;86.90
45785;DHT22;31489;51.404;5.474;2023-05-10T01:37:50;17.20;86.90
45785;DHT22;31489;51.404;5.474;2023-05-10T01:40:38;17.20;86.90
45785;DHT22;31489;51.404;5.474;2023-05-10T01:43:11;17.20;86.80
45785;DHT22;31489;51.404;5.474;2023-05-10T01:45:54;17.20;87.00
45785;DHT22;31489;51.404;5.474;2023-05-10T01:48:26;17.20;86.70
45785;DHT22;31489;51.404;5.474;2023-05-10T01:50:53;17.20;86.80
45785;DHT22;31489;51.404;5.474;2023-05-10T01:53:21;17.20;86.60
45785;DHT22;31489;51.404;5.474;2023-05-10T01:55:51;17.20;86.50
45785;DHT22;31489;51.404;5.474;2023-05-10T01:58:22;17.20;87.10
45785;DHT22;31489;51.404;5.474;2023-05-10T02:00:49;17.10;86.30
45785;DHT22;31489;51.404;5.474;2023-05-10T02:03:16;17.20;86.30
45785;DHT22;31489;51.404;5.474;2023-05-10T02:05:43;17.10;86.30
45785;DHT22;31489;51.404;5.474;2023-05-10T02:08:11;17.10;86.10
45785;DHT22;31489;51.404;5.474;2023-05-10T02:10:39;17.00;86.10
45785;DHT22;31489;51.404;5.474;2023-05-10T02:13:06;17.00;86.10
45785;DHT22;31489;51.404;5.474;2023-05-10T02:15:33;17.00;86.30
45785;DHT22;31489;51.404;5.474;2023-05-10T02:18:00;17.00;86.50
45785;DHT22;31489;51.404;5.474;2023-05-10T02:20:27;17.00;86.50
45785;DHT22;31489;51.404;5.474;2023-05-10T02:22:56;17.00;86.70
45785;DHT22;31489;51.404;5.474;2023-05-10T02:25:24;17.00;86.60
45785;DHT22;31489;51.404;5.474;2023-05-10T02:27:51;17.00;86.60
45785;DHT22;31489;51.404;5.474;2023-05-10T02:30:19;17.00;86.50
45785;DHT22;31489;51.404;5.474;2023-05-10T02:32:47;17.00;86.50
45785;DHT22;31489;51.404;5.474;2023-05-10T02:35:14;17.00;86.50
45785;DHT22;31489;51.404;5.474;2023-05-10T02:37:41;17.00;86.50
45785;DHT22;31489;51.404;5.474;2023-05-10T02:40:07;17.00;86.50
45785;DHT22;31489;51.404;5.474;2023-05-10T02:42:36;17.00;86.50
45785;DHT22;31489;51.404;5.474;2023-05-10T02:45:07;16.90;86.40
45785;DHT22;31489;51.404;5.474;2023-05-10T02:47:33;16.90;86.40
45785;DHT22;31489;51.404;5.474;2023-05-10T02:49:59;16.90;86.40
45785;DHT22;31489;51.404;5.474;2023-05-10T02:52:29;16.90;86.40
45785;DHT22;31489;51.404;5.474;2023-05-10T02:55:00;16.90;86.10
45785;DHT22;31489;51.404;5.474;2023-05-10T02:57:33;16.90;86.10
45785;DHT22;31489;51.404;5.474;2023-05-10T02:59:59;16.90;86.10
45785;DHT22;31489;51.404;5.474;2023-05-10T03:02:26;16.90;86.30
45785;DHT22;31489;51.404;5.474;2023-05-10T03:04:51;16.90;86.30
45785;DHT22;31489;51.404;5.474;2023-05-10T03:07:17;16.90;86.30
45785;DHT22;31489;51.404;5.474;2023-05-10T03:09:44;16.80;86.40
45785;DHT22;31489;51.404;5.474;2023-05-10T03:18:17;16.80;86.20
45785;DHT22;31489;51.404;5.474;2023-05-10T03:20:51;16.80;86.40
45785;DHT22;31489;51.404;5.474;2023-05-10T03:23:30;16.80;86.40
45785;DHT22;31489;51.404;5.474;2023-05-10T03:25:59;16.80;86.40
45785;DHT22;31489;51.404;5.474;2023-05-10T03:28:26;16.80;86.50
45785;DHT22;31489;51.404;5.474;2023-05-10T03:30:53;16.80;86.60
45785;DHT22;31489;51.404;5.474;2023-05-10T03:33:20;16.80;86.60
45785;DHT22;31489;51.404;5.474;2023-05-10T03:35:45;16.80;86.60
45785;DHT22;31489;51.404;5.474;2023-05-10T03:38:14;16.80;86.70
45785;DHT22;31489;51.404;5.474;2023-05-10T03:40:39;16.80;86.60
45785;DHT22;31489;51.404;5.474;2023-05-10T03:43:05;16.80;86.70
45785;DHT22;31489;51.404;5.474;2023-05-10T03:45:31;16.80;86.80
45785;DHT22;31489;51.404;5.474;2023-05-10T03:47:57;16.80;86.70
45785;DHT22;31489;51.404;5.474;2023-05-10T03:50:23;16.80;86.70
45785;DHT22;31489;51.404;5.474;2023-05-10T03:52:49;16.80;86.60
45785;DHT22;31489;51.404;5.474;2023-05-10T03:55:15;16.80;86.70
45785;DHT22;31489;51.404;5.474;2023-05-10T03:57:41;16.70;86.70
45785;DHT22;31489;51.404;5.474;2023-05-10T04:00:07;16.70;86.80
45785;DHT22;31489;51.404;5.474;2023-05-10T04:02:33;16.70;86.80
45785;DHT22;31489;51.404;5.474;2023-05-10T04:04:59;16.70;87.30
45785;DHT22;31489;51.404;5.474;2023-05-10T04:07:24;16.70;86.80
45785;DHT22;31489;51.404;5.474;2023-05-10T04:09:50;16.70;86.80
45785;DHT22;31489;51.404;5.474;2023-05-10T04:12:15;16.70;86.80
45785;DHT22;31489;51.404;5.474;2023-05-10T04:14:41;16.70;86.80
45785;DHT22;31489;51.404;5.474;2023-05-10T04:17:07;16.70;86.70
45785;DHT22;31489;51.404;5.474;2023-05-10T04:19:33;16.70;86.50
45785;DHT22;31489;51.404;5.474;2023-05-10T04:21:59;16.70;86.40
45785;DHT22;31489;51.404;5.474;2023-05-10T04:24:25;16.70;86.30
45785;DHT22;31489;51.404;5.474;2023-05-10T04:26:51;16.70;86.30
45785;DHT22;31489;51.404;5.474;2023-05-10T04:29:17;16.70;86.60
45785;DHT22;31489;51.404;5.474;2023-05-10T04:31:43;16.70;86.60
45785;DHT22;31489;51.404;5.474;2023-05-10T04:34:08;16.70;86.60
45785;DHT22;31489;51.404;5.474;2023-05-10T04:36:34;16.60;86.40
45785;DHT22;31489;51.404;5.474;2023-05-10T04:39:02;16.70;86.50
45785;DHT22;31489;51.404;5.474;2023-05-10T04:41:28;16.70;86.50
45785;DHT22;31489;51.404;5.474;2023-05-10T04:43:54;16.70;86.40
45785;DHT22;31489;51.404;5.474;2023-05-10T04:46:19;16.60;86.30
45785;DHT22;31489;51.404;5.474;2023-05-10T04:48:45;16.70;86.30
45785;DHT22;31489;51.404;5.474;2023-05-10T04:51:11;16.60;86.30
45785;DHT22;31489;51.404;5.474;2023-05-10T04:53:36;16.60;86.10
45785;DHT22;31489;51.404;5.474;2023-05-10T04:56:02;16.70;86.30
45785;DHT22;31489;51.404;5.474;2023-05-10T04:58:28;16.60;86.30
45785;DHT22;31489;51.404;5.474;2023-05-10T05:00:53;16.60;86.30
45785;DHT22;31489;51.404;5.474;2023-05-10T05:03:19;16.60;86.30
45785;DHT22;31489;51.404;5.474;2023-05-10T05:05:44;16.60;86.40
45785;DHT22;31489;51.404;5.474;2023-05-10T05:08:10;16.60;86.30
45785;DHT22;31489;51.404;5.474;2023-05-10T05:10:35;16.60;86.30
45785;DHT22;31489;51.404;5.474;2023-05-10T05:13:01;16.70;86.40
45785;DHT22;31489;51.404;5.474;2023-05-10T05:15:27;16.60;86.30
45785;DHT22;31489;51.404;5.474;2023-05-10T05:17:53;16.60;86.30
45785;DHT22;31489;51.404;5.474;2023-05-10T05:20:18;16.60;86.00
45785;DHT22;31489;51.404;5.474;2023-05-10T05:22:44;16.60;86.00
45785;DHT22;31489;51.404;5.474;2023-05-10T05:25:10;16.60;86.00
45785;DHT22;31489;51.404;5.474;2023-05-10T05:27:37;16.60;85.80
45785;DHT22;31489;51.404;5.474;2023-05-10T05:30:03;16.60;85.70
45785;DHT22;31489;51.404;5.474;2023-05-10T05:32:29;16.60;85.70
45785;DHT22;31489;51.404;5.474;2023-05-10T05:34:55;16.60;85.60
45785;DHT22;31489;51.404;5.474;2023-05-10T05:37:21;16.60;85.70
45785;DHT22;31489;51.404;5.474;2023-05-10T05:39:48;16.60;85.40
45785;DHT22;31489;51.404;5.474;2023-05-10T05:42:14;16.60;85.20
45785;DHT22;31489;51.404;5.474;2023-05-10T05:44:41;16.60;85.00
45785;DHT22;31489;51.404;5.474;2023-05-10T05:47:07;16.60;85.10
45785;DHT22;31489;51.404;5.474;2023-05-10T05:49:33;16.60;85.50
45785;DHT22;31489;51.404;5.474;2023-05-10T05:51:59;16.60;85.50
45785;DHT22;31489;51.404;5.474;2023-05-10T05:54:26;16.60;85.50
45785;DHT22;31489;51.404;5.474;2023-05-10T05:56:54;16.60;85.20
45785;DHT22;31489;51.404;5.474;2023-05-10T05:59:20;16.70;85.10
45785;DHT22;31489;51.404;5.474;2023-05-10T06:01:46;16.60;85.10
45785;DHT22;31489;51.404;5.474;2023-05-10T06:04:12;16.70;85.00
45785;DHT22;31489;51.404;5.474;2023-05-10T06:06:37;16.60;85.20
45785;DHT22;31489;51.404;5.474;2023-05-10T06:09:03;16.60;84.90
45785;DHT22;31489;51.404;5.474;2023-05-10T06:11:29;16.60;84.70
45785;DHT22;31489;51.404;5.474;2023-05-10T06:13:55;16.60;84.80
45785;DHT22;31489;51.404;5.474;2023-05-10T06:16:21;16.60;84.90
45785;DHT22;31489;51.404;5.474;2023-05-10T06:18:47;16.60;85.00
45785;DHT22;31489;51.404;5.474;2023-05-10T06:21:13;16.60;85.20
45785;DHT22;31489;51.404;5.474;2023-05-10T06:23:38;16.60;85.10
45785;DHT22;31489;51.404;5.474;2023-05-10T06:26:04;16.60;85.10
45785;DHT22;31489;51.404;5.474;2023-05-10T06:28:29;16.60;85.20
45785;DHT22;31489;51.404;5.474;2023-05-10T06:30:57;16.60;85.40
45785;DHT22;31489;51.404;5.474;2023-05-10T06:33:23;16.70;85.60
45785;DHT22;31489;51.404;5.474;2023-05-10T06:35:48;16.70;85.50
45785;DHT22;31489;51.404;5.474;2023-05-10T06:38:14;16.70;85.30
45785;DHT22;31489;51.404;5.474;2023-05-10T06:40:43;16.70;85.40
45785;DHT22;31489;51.404;5.474;2023-05-10T06:43:10;16.70;85.40
45785;DHT22;31489;51.404;5.474;2023-05-10T06:45:35;16.70;85.60
45785;DHT22;31489;51.404;5.474;2023-05-10T06:48:01;16.70;85.70
45785;DHT22;31489;51.404;5.474;2023-05-10T06:50:27;16.80;85.60
45785;DHT22;31489;51.404;5.474;2023-05-10T06:52:52;16.80;85.50
45785;DHT22;31489;51.404;5.474;2023-05-10T06:55:18;16.90;85.50
45785;DHT22;31489;51.404;5.474;2023-05-10T06:57:43;16.90;85.60
45785;DHT22;31489;51.404;5.474;2023-05-10T07:00:09;16.90;85.60
45785;DHT22;31489;51.404;5.474;2023-05-10T07:02:35;17.00;85.60
45785;DHT22;31489;51.404;5.474;2023-05-10T07:05:01;17.00;85.70
45785;DHT22;31489;51.404;5.474;2023-05-10T07:07:27;17.10;85.60
45785;DHT22;31489;51.404;5.474;2023-05-10T07:09:53;17.00;85.20
45785;DHT22;31489;51.404;5.474;2023-05-10T07:12:18;17.10;85.00
45785;DHT22;31489;51.404;5.474;2023-05-10T07:14:44;17.10;84.90
45785;DHT22;31489;51.404;5.474;2023-05-10T07:17:10;17.10;85.20
45785;DHT22;31489;51.404;5.474;2023-05-10T07:19:36;17.20;85.20
45785;DHT22;31489;51.404;5.474;2023-05-10T07:22:02;17.20;85.30
45785;DHT22;31489;51.404;5.474;2023-05-10T07:24:27;17.20;84.90
45785;DHT22;31489;51.404;5.474;2023-05-10T07:26:53;17.20;84.80
45785;DHT22;31489;51.404;5.474;2023-05-10T07:29:18;17.20;84.70
45785;DHT22;31489;51.404;5.474;2023-05-10T07:31:44;17.20;84.40
45785;DHT22;31489;51.404;5.474;2023-05-10T07:34:10;17.20;84.30
45785;DHT22;31489;51.404;5.474;2023-05-10T07:36:35;17.20;84.00
45785;DHT22;31489;51.404;5.474;2023-05-10T07:39:01;17.20;84.20
45785;DHT22;31489;51.404;5.474;2023-05-10T07:41:27;17.20;84.40
45785;DHT22;31489;51.404;5.474;2023-05-10T07:43:53;17.20;84.10
45785;DHT22;31489;51.404;5.474;2023-05-10T07:46:18;17.20;84.10
45785;DHT22;31489;51.404;5.474;2023-05-10T07:48:47;17.20;83.80
45785;DHT22;31489;51.404;5.474;2023-05-10T07:51:13;17.20;84.10
45785;DHT22;31489;51.404;5.474;2023-05-10T07:53:39;17.20;84.50
45785;DHT22;31489;51.404;5.474;2023-05-10T07:58:46;17.20;83.40
45785;DHT22;31489;51.404;5.474;2023-05-10T08:01:11;17.20;83.80
45785;DHT22;31489;51.404;5.474;2023-05-10T08:03:37;17.20;83.60
45785;DHT22;31489;51.404;5.474;2023-05-10T08:06:02;17.20;83.70
45785;DHT22;31489;51.404;5.474;2023-05-10T08:08:28;17.20;83.60
45785;DHT22;31489;51.404;5.474;2023-05-10T08:10:54;17.20;83.40
45785;DHT22;31489;51.404;5.474;2023-05-10T08:13:20;17.20;83.40
45785;DHT22;31489;51.404;5.474;2023-05-10T08:15:46;17.20;83.40
45785;DHT22;31489;51.404;5.474;2023-05-10T08:18:12;17.20;83.40
45785;DHT22;31489;51.404;5.474;2023-05-10T08:20:37;17.20;83.10
45785;DHT22;31489;51.404;5.474;2023-05-10T08:23:03;17.20;83.20
45785;DHT22;31489;51.404;5.474;2023-05-10T08:25:28;17.10;82.90
45785;DHT22;31489;51.404;5.474;2023-05-10T08:27:54;17.20;83.20
45785;DHT22;31489;51.404;5.474;2023-05-10T08:30:22;17.10;83.40
45785;DHT22;31489;51.404;5.474;2023-05-10T08:32:47;17.10;83.40
45785;DHT22;31489;51.404;5.474;2023-05-10T08:35:13;17.10;83.40
45785;DHT22;31489;51.404;5.474;2023-05-10T08:37:38;17.10;82.90
45785;DHT22;31489;51.404;5.474;2023-05-10T08:40:04;17.10;83.10
45785;DHT22;31489;51.404;5.474;2023-05-10T08:42:31;17.10;83.30
45785;DHT22;31489;51.404;5.474;2023-05-10T08:45:00;17.20;83.40
45785;DHT22;31489;51.404;5.474;2023-05-10T08:47:27;17.10;83.60
45785;DHT22;31489;51.404;5.474;2023-05-10T08:49:54;17.20;83.70
45785;DHT22;31489;51.404;5.474;2023-05-10T08:52:21;17.20;83.80
45785;DHT22;31489;51.404;5.474;2023-05-10T08:54:47;17.30;83.80
45785;DHT22;31489;51.404;5.474;2023-05-10T08:57:13;17.30;83.40
45785;DHT22;31489;51.404;5.474;2023-05-10T08:59:38;17.40;82.70
45785;DHT22;31489;51.404;5.474;2023-05-10T09:02:05;17.40;82.80
45785;DHT22;31489;51.404;5.474;2023-05-10T09:04:31;17.50;82.90
45785;DHT22;31489;51.404;5.474;2023-05-10T09:06:57;17.50;82.80
45785;DHT22;31489;51.404;5.474;2023-05-10T09:09:24;17.60;82.30
45785;DHT22;31489;51.404;5.474;2023-05-10T09:11:51;17.60;82.10
45785;DHT22;31489;51.404;5.474;2023-05-10T09:14:17;17.60;82.00
45785;DHT22;31489;51.404;5.474;2023-05-10T09:16:44;17.60;82.10
45785;DHT22;31489;51.404;5.474;2023-05-10T09:19:10;17.60;81.80
45785;DHT22;31489;51.404;5.474;2023-05-10T09:21:36;17.70;81.80
45785;DHT22;31489;51.404;5.474;2023-05-10T09:24:07;17.70;82.00
45785;DHT22;31489;51.404;5.474;2023-05-10T09:26:33;17.80;82.40
45785;DHT22;31489;51.404;5.474;2023-05-10T09:29:00;17.90;82.60
45785;DHT22;31489;51.404;5.474;2023-05-10T09:34:11;17.90;81.70
45785;DHT22;31489;51.404;5.474;2023-05-10T09:36:54;18.00;82.30
45785;DHT22;31489;51.404;5.474;2023-05-10T09:39:38;18.00;81.50
45785;DHT22;31489;51.404;5.474;2023-05-10T09:42:07;18.10;81.60
45785;DHT22;31489;51.404;5.474;2023-05-10T09:44:33;18.10;81.90
45785;DHT22;31489;51.404;5.474;2023-05-10T09:47:00;18.10;81.80
45785;DHT22;31489;51.404;5.474;2023-05-10T09:49:26;18.10;81.60
45785;DHT22;31489;51.404;5.474;2023-05-10T09:52:04;18.10;81.70
45785;DHT22;31489;51.404;5.474;2023-05-10T09:54:31;18.10;81.20
45785;DHT22;31489;51.404;5.474;2023-05-10T09:56:57;18.20;82.10
45785;DHT22;31489;51.404;5.474;2023-05-10T09:59:28;18.20;82.00
45785;DHT22;31489;51.404;5.474;2023-05-10T10:02:00;18.20;82.00
45785;DHT22;31489;51.404;5.474;2023-05-10T10:04:26;18.30;82.10
45785;DHT22;31489;51.404;5.474;2023-05-10T10:07:00;18.30;82.10
45785;DHT22;31489;51.404;5.474;2023-05-10T10:09:26;18.50;81.40
45785;DHT22;31489;51.404;5.474;2023-05-10T10:11:52;18.50;81.90
45785;DHT22;31489;51.404;5.474;2023-05-10T10:14:19;18.60;81.30
45785;DHT22;31489;51.404;5.474;2023-05-10T10:16:46;18.70;80.30
45785;DHT22;31489;51.404;5.474;2023-05-10T10:19:12;18.70;79.60
45785;DHT22;31489;51.404;5.474;2023-05-10T10:21:38;18.80;79.40
45785;DHT22;31489;51.404;5.474;2023-05-10T10:24:03;18.80;79.40
45785;DHT22;31489;51.404;5.474;2023-05-10T10:26:33;18.90;79.80
45785;DHT22;31489;51.404;5.474;2023-05-10T10:32:19;19.10;77.30
45785;DHT22;31489;51.404;5.474;2023-05-10T10:34:47;19.20;77.40
45785;DHT22;31489;51.404;5.474;2023-05-10T10:37:13;19.20;78.80
45785;DHT22;31489;51.404;5.474;2023-05-10T10:39:38;19.30;78.00
45785;DHT22;31489;51.404;5.474;2023-05-10T10:42:04;19.30;77.40
45785;DHT22;31489;51.404;5.474;2023-05-10T10:47:08;19.40;77.50
45785;DHT22;31489;51.404;5.474;2023-05-10T10:55:14;19.50;75.90
45785;DHT22;31489;51.404;5.474;2023-05-10T11:00:28;19.40;76.30
45785;DHT22;31489;51.404;5.474;2023-05-10T11:08:06;19.30;76.80
45785;DHT22;31489;51.404;5.474;2023-05-10T11:10:32;19.30;76.70
45785;DHT22;31489;51.404;5.474;2023-05-10T11:13:06;19.20;76.70
45785;DHT22;31489;51.404;5.474;2023-05-10T11:15:37;19.20;76.60
45785;DHT22;31489;51.404;5.474;2023-05-10T11:18:19;19.20;76.50
45785;DHT22;31489;51.404;5.474;2023-05-10T11:20:57;19.20;76.10
45785;DHT22;31489;51.404;5.474;2023-05-10T11:23:29;19.10;75.70
45785;DHT22;31489;51.404;5.474;2023-05-10T11:25:55;19.10;76.40
45785;DHT22;31489;51.404;5.474;2023-05-10T11:28:21;19.20;76.70
45785;DHT22;31489;51.404;5.474;2023-05-10T11:30:47;19.20;76.80
45785;DHT22;31489;51.404;5.474;2023-05-10T11:33:17;19.20;77.10
45785;DHT22;31489;51.404;5.474;2023-05-10T11:35:43;19.20;76.50
45785;DHT22;31489;51.404;5.474;2023-05-10T11:38:10;19.30;77.00
45785;DHT22;31489;51.404;5.474;2023-05-10T11:40:37;19.30;76.50
45785;DHT22;31489;51.404;5.474;2023-05-10T11:43:03;19.30;76.40
45785;DHT22;31489;51.404;5.474;2023-05-10T11:45:32;19.40;76.60
45785;DHT22;31489;51.404;5.474;2023-05-10T11:47:58;19.40;76.00
45785;DHT22;31489;51.404;5.474;2023-05-10T11:50:24;19.50;76.20
45785;DHT22;31489;51.404;5.474;2023-05-10T11:52:55;19.60;76.20
45785;DHT22;31489;51.404;5.474;2023-05-10T11:55:21;19.60;75.70
45785;DHT22;31489;51.404;5.474;2023-05-10T11:57:51;19.70;76.40
45785;DHT22;31489;51.404;5.474;2023-05-10T12:00:16;19.80;76.60
45785;DHT22;31489;51.404;5.474;2023-05-10T12:02:42;19.90;76.30
45785;DHT22;31489;51.404;5.474;2023-05-10T12:05:08;20.00;76.00
45785;DHT22;31489;51.404;5.474;2023-05-10T12:07:34;20.10;76.20
45785;DHT22;31489;51.404;5.474;2023-05-10T12:10:12;20.20;76.00
45785;DHT22;31489;51.404;5.474;2023-05-10T12:12:45;20.30;74.70
45785;DHT22;31489;51.404;5.474;2023-05-10T12:15:18;20.50;75.70
45785;DHT22;31489;51.404;5.474;2023-05-10T12:17:48;20.60;75.10
45785;DHT22;31489;51.404;5.474;2023-05-10T12:20:26;20.80;75.90
45785;DHT22;31489;51.404;5.474;2023-05-10T12:22:57;21.00;73.70
45785;DHT22;31489;51.404;5.474;2023-05-10T12:25:28;21.10;73.50
45785;DHT22;31489;51.404;5.474;2023-05-10T12:27:56;21.20;74.10
45785;DHT22;31489;51.404;5.474;2023-05-10T12:30:27;21.20;73.30
45785;DHT22;31489;51.404;5.474;2023-05-10T12:32:53;21.20;72.90
45785;DHT22;31489;51.404;5.474;2023-05-10T12:35:19;21.20;73.40
45785;DHT22;31489;51.404;5.474;2023-05-10T12:37:50;21.20;73.30
45785;DHT22;31489;51.404;5.474;2023-05-10T12:40:16;21.10;72.50
45785;DHT22;31489;51.404;5.474;2023-05-10T12:42:47;21.10;72.80
45785;DHT22;31489;51.404;5.474;2023-05-10T12:45:14;21.00;72.50
45785;DHT22;31489;51.404;5.474;2023-05-10T12:47:39;21.00;73.10
45785;DHT22;31489;51.404;5.474;2023-05-10T12:50:06;20.90;72.10
45785;DHT22;31489;51.404;5.474;2023-05-10T12:52:32;20.80;71.90
45785;DHT22;31489;51.404;5.474;2023-05-10T12:54:58;20.80;72.90
45785;DHT22;31489;51.404;5.474;2023-05-10T12:57:24;20.80;72.90
45785;DHT22;31489;51.404;5.474;2023-05-10T12:59:50;20.80;73.40
45785;DHT22;31489;51.404;5.474;2023-05-10T13:02:16;20.80;73.10
45785;DHT22;31489;51.404;5.474;2023-05-10T13:04:44;20.70;72.10
45785;DHT22;31489;51.404;5.474;2023-05-10T13:07:10;20.60;71.60
45785;DHT22;31489;51.404;5.474;2023-05-10T13:09:35;20.60;71.70
45785;DHT22;31489;51.404;5.474;2023-05-10T13:12:02;20.60;71.10
45785;DHT22;31489;51.404;5.474;2023-05-10T13:14:27;20.50;71.60
45785;DHT22;31489;51.404;5.474;2023-05-10T13:16:53;20.50;72.30
45785;DHT22;31489;51.404;5.474;2023-05-10T13:19:19;20.40;73.30
45785;DHT22;31489;51.404;5.474;2023-05-10T13:21:46;20.40;73.30
45785;DHT22;31489;51.404;5.474;2023-05-10T13:24:12;20.30;73.40
45785;DHT22;31489;51.404;5.474;2023-05-10T13:26:41;20.30;73.60
45785;DHT22;31489;51.404;5.474;2023-05-10T13:29:07;20.20;74.50
45785;DHT22;31489;51.404;5.474;2023-05-10T13:31:33;20.20;74.10
45785;DHT22;31489;51.404;5.474;2023-05-10T13:34:02;20.10;73.60
45785;DHT22;31489;51.404;5.474;2023-05-10T13:36:28;20.00;73.70
45785;DHT22;31489;51.404;5.474;2023-05-10T13:38:54;20.00;74.70
45785;DHT22;31489;51.404;5.474;2023-05-10T13:41:19;19.90;74.90
45785;DHT22;31489;51.404;5.474;2023-05-10T13:43:45;19.90;75.10
45785;DHT22;31489;51.404;5.474;2023-05-10T13:46:14;19.80;75.00
45785;DHT22;31489;51.404;5.474;2023-05-10T13:48:39;19.70;74.90
45785;DHT22;31489;51.404;5.474;2023-05-10T13:51:07;19.70;75.10
45785;DHT22;31489;51.404;5.474;2023-05-10T13:53:33;19.60;75.30
45785;DHT22;31489;51.404;5.474;2023-05-10T13:55:59;19.50;75.50
45785;DHT22;31489;51.404;5.474;2023-05-10T13:58:24;19.40;75.60
45785;DHT22;31489;51.404;5.474;2023-05-10T14:00:53;19.30;75.70
45785;DHT22;31489;51.404;5.474;2023-05-10T14:03:19;19.20;75.40
45785;DHT22;31489;51.404;5.474;2023-05-10T14:05:44;19.10;76.80
45785;DHT22;31489;51.404;5.474;2023-05-10T14:08:10;19.00;76.20
45785;DHT22;31489;51.404;5.474;2023-05-10T14:10:38;18.90;76.70
45785;DHT22;31489;51.404;5.474;2023-05-10T14:13:04;18.90;76.80
45785;DHT22;31489;51.404;5.474;2023-05-10T14:15:30;18.80;76.90
45785;DHT22;31489;51.404;5.474;2023-05-10T14:17:56;18.80;77.10
45785;DHT22;31489;51.404;5.474;2023-05-10T14:20:24;18.70;77.50
45785;DHT22;31489;51.404;5.474;2023-05-10T14:22:50;18.70;77.70
45785;DHT22;31489;51.404;5.474;2023-05-10T14:25:16;18.70;78.30
45785;DHT22;31489;51.404;5.474;2023-05-10T14:27:41;18.60;78.60
45785;DHT22;31489;51.404;5.474;2023-05-10T14:30:07;18.70;79.50
45785;DHT22;31489;51.404;5.474;2023-05-10T14:32:33;18.70;79.70
45785;DHT22;31489;51.404;5.474;2023-05-10T14:34:59;18.70;80.20
45785;DHT22;31489;51.404;5.474;2023-05-10T14:37:27;18.70;80.40
45785;DHT22;31489;51.404;5.474;2023-05-10T14:39:53;18.70;80.20
45785;DHT22;31489;51.404;5.474;2023-05-10T14:42:20;18.80;80.10
45785;DHT22;31489;51.404;5.474;2023-05-10T14:44:46;18.80;79.80
45785;DHT22;31489;51.404;5.474;2023-05-10T14:47:12;18.80;79.70
45785;DHT22;31489;51.404;5.474;2023-05-10T14:49:38;18.80;79.60
45785;DHT22;31489;51.404;5.474;2023-05-10T14:52:09;18.80;79.80
45785;DHT22;31489;51.404;5.474;2023-05-10T14:54:43;18.90;79.80
45785;DHT22;31489;51.404;5.474;2023-05-10T14:57:09;18.90;79.60
45785;DHT22;31489;51.404;5.474;2023-05-10T14:59:34;18.90;80.00
45785;DHT22;31489;51.404;5.474;2023-05-10T15:02:03;18.90;80.00
45785;DHT22;31489;51.404;5.474;2023-05-10T15:04:29;18.90;79.20
45785;DHT22;31489;51.404;5.474;2023-05-10T15:06:55;18.90;79.40
45785;DHT22;31489;51.404;5.474;2023-05-10T15:09:24;18.90;79.30
45785;DHT22;31489;51.404;5.474;2023-05-10T15:11:50;18.80;79.10
45785;DHT22;31489;51.404;5.474;2023-05-10T15:14:16;18.80;79.30
45785;DHT22;31489;51.404;5.474;2023-05-10T15:16:42;18.80;79.50
45785;DHT22;31489;51.404;5.474;2023-05-10T15:19:08;18.80;79.70
45785;DHT22;31489;51.404;5.474;2023-05-10T15:21:33;18.80;79.40
45785;DHT22;31489;51.404;5.474;2023-05-10T15:24:05;18.80;79.60
45785;DHT22;31489;51.404;5.474;2023-05-10T15:26:33;18.80;79.10
45785;DHT22;31489;51.404;5.474;2023-05-10T15:28:59;18.70;79.40
45785;DHT22;31489;51.404;5.474;2023-05-10T15:31:25;18.70;79.80
45785;DHT22;31489;51.404;5.474;2023-05-10T15:33:50;18.70;80.10
45785;DHT22;31489;51.404;5.474;2023-05-10T15:36:16;18.70;79.80
45785;DHT22;31489;51.404;5.474;2023-05-10T15:38:43;18.70;79.80
45785;DHT22;31489;51.404;5.474;2023-05-10T15:41:09;18.60;80.30
45785;DHT22;31489;51.404;5.474;2023-05-10T15:43:34;18.60;80.20
45785;DHT22;31489;51.404;5.474;2023-05-10T15:46:00;18.50;80.20
45785;DHT22;31489;51.404;5.474;2023-05-10T15:48:25;18.50;79.80
45785;DHT22;31489;51.404;5.474;2023-05-10T15:50:51;18.50;79.70
45785;DHT22;31489;51.404;5.474;2023-05-10T15:53:17;18.50;80.00
45785;DHT22;31489;51.404;5.474;2023-05-10T15:55:42;18.40;80.00
45785;DHT22;31489;51.404;5.474;2023-05-10T15:58:08;18.40;80.00
45785;DHT22;31489;51.404;5.474;2023-05-10T16:00:37;18.40;80.10
45785;DHT22;31489;51.404;5.474;2023-05-10T16:03:06;18.30;80.30